Time;durP1;ratioP1;P1;durP2;ratioP2;P2;SDS_P1;SDS_P2;PMS_P1;PMS_P2;Temp;Humidity;BMP_temperature;BMP_pressure;BME280_temperature;BME280_humidity;BME280_pressure;Samples;Min_cycle;Max_cycle;Signal;HPM_P1;HPM_P2
2022/04/24 00:00:46;;;;;;;12.63;8.38;;;9.80;99.90;;;;;;5074982;28;20083;-58
2022/04/24 00:03:12;;;;;;;14.27;8.05;;;9.80;99.90;;;;;;5075187;28;20040;-57
2022/04/24 00:05:38;;;;;;;12.48;7.93;;;9.70;99.90;;;;;;5073393;28;20062;-57
2022/04/24 00:08:04;;;;;;;12.45;7.97;;;9.70;99.90;;;;;;5074695;28;20472;-57
2022/04/24 00:10:30;;;;;;;10.82;7.95;;;9.70;99.90;;;;;;5074622;28;20094;-56
2022/04/24 00:12:55;;;;;;;12.60;7.63;;;9.60;99.90;;;;;;5074826;28;20484;-57
2022/04/24 00:15:21;;;;;;;11.75;7.00;;;9.60;99.90;;;;;;5074817;28;20037;-57
2022/04/24 00:17:47;;;;;;;12.52;7.95;;;9.50;99.90;;;;;;5073433;28;20045;-57
2022/04/24 00:20:12;;;;;;;11.35;7.43;;;9.50;99.90;;;;;;5074811;28;20070;-57
2022/04/24 00:22:38;;;;;;;11.63;7.60;;;9.50;99.90;;;;;;5068777;28;20041;-57
2022/04/24 00:25:04;;;;;;;10.50;7.28;;;9.50;99.90;;;;;;5054632;28;20120;-57
2022/04/24 00:27:30;;;;;;;10.77;7.50;;;9.50;99.90;;;;;;5070212;28;20041;-57
2022/04/24 00:29:55;;;;;;;10.25;7.38;;;9.30;99.90;;;;;;5054636;28;20059;-58
2022/04/24 00:32:21;;;;;;;12.63;7.70;;;9.30;99.90;;;;;;5054553;28;20086;-57
2022/04/24 00:34:47;;;;;;;14.30;7.53;;;9.40;99.90;;;;;;5053278;28;20040;-57
2022/04/24 00:37:12;;;;;;;11.10;7.65;;;9.30;99.90;;;;;;5054430;28;20194;-57
2022/04/24 00:39:38;;;;;;;10.98;7.72;;;9.40;99.90;;;;;;5054197;28;20420;-49
2022/04/24 00:42:08;;;;;;;11.38;7.43;;;9.30;99.90;;;;;;5069897;28;20549;-48
2022/04/24 00:44:34;;;;;;;11.77;7.40;;;9.30;99.90;;;;;;5067433;28;20045;-52
2022/04/24 00:47:14;;;;;;;10.70;7.20;;;9.30;99.90;;;;;;5074171;28;20076;-50
2022/04/24 00:49:40;;;;;;;13.05;7.90;;;9.20;99.90;;;;;;5073919;28;20053;-49
2022/04/24 00:52:06;;;;;;;11.65;7.60;;;9.20;99.90;;;;;;5074279;28;20040;-50
2022/04/24 00:54:32;;;;;;;10.05;7.22;;;9.20;99.90;;;;;;5073804;28;20520;-50
2022/04/24 00:56:58;;;;;;;10.73;7.32;;;9.10;99.90;;;;;;5074033;28;20440;-49
2022/04/24 00:59:23;;;;;;;11.40;8.35;;;9.20;99.90;;;;;;5073830;28;20246;-48
2022/04/24 01:01:49;;;;;;;14.20;8.07;;;9.20;99.90;;;;;;5073832;28;20131;-50
2022/04/24 01:04:16;;;;;;;11.18;8.35;;;9.10;99.90;;;;;;5073909;28;20040;-52
2022/04/24 01:06:43;;;;;;;11.38;7.68;;;9.10;99.90;;;;;;5073735;28;20036;-52
2022/04/24 01:09:17;;;;;;;12.35;7.70;;;9.10;99.90;;;;;;5073777;28;20036;-52
2022/04/24 01:11:45;;;;;;;10.98;7.80;;;9.10;99.90;;;;;;5073694;28;20032;-52
2022/04/24 01:14:11;;;;;;;11.73;8.15;;;9.10;99.90;;;;;;5074147;28;20412;-49
2022/04/24 01:16:37;;;;;;;11.65;7.43;;;9.00;99.90;;;;;;5073671;28;20041;-49
2022/04/24 01:19:05;;;;;;;11.43;8.13;;;9.00;99.90;;;;;;5073589;28;20103;-49
2022/04/24 01:21:31;;;;;;;10.82;7.75;;;9.00;99.90;;;;;;5073493;28;20397;-48
2022/04/24 01:23:57;;;;;;;10.98;7.63;;;8.90;99.90;;;;;;5056905;28;20048;-50
2022/04/24 01:26:23;;;;;;;12.13;8.20;;;8.90;99.90;;;;;;5053499;28;20041;-49
2022/04/24 01:28:48;;;;;;;12.25;9.00;;;8.80;99.90;;;;;;5053568;28;20159;-50
2022/04/24 01:31:14;;;;;;;10.88;7.70;;;8.80;99.90;;;;;;5053219;28;20185;-49
2022/04/24 01:33:40;;;;;;;11.45;7.65;;;8.80;99.90;;;;;;5051990;28;20044;-48
2022/04/24 01:36:06;;;;;;;13.00;7.82;;;8.70;99.90;;;;;;5053108;28;20184;-48
2022/04/24 01:38:33;;;;;;;12.70;8.50;;;8.70;99.90;;;;;;5053095;28;20063;-51
2022/04/24 01:40:59;;;;;;;11.65;8.82;;;8.70;99.90;;;;;;5053291;28;20072;-49
2022/04/24 01:43:24;;;;;;;10.82;7.85;;;8.60;99.90;;;;;;5056956;28;20452;-48
2022/04/24 01:45:50;;;;;;;11.07;8.07;;;8.60;99.90;;;;;;5072960;28;20036;-51
2022/04/24 01:48:16;;;;;;;13.30;8.05;;;8.50;99.90;;;;;;5073368;28;20079;-47
2022/04/24 01:50:41;;;;;;;11.18;8.40;;;8.60;99.90;;;;;;5072411;28;20591;-48
2022/04/24 01:53:07;;;;;;;12.40;8.75;;;8.50;99.90;;;;;;5072742;28;20495;-51
2022/04/24 01:55:33;;;;;;;11.45;8.32;;;8.40;99.90;;;;;;5073048;28;20124;-51
2022/04/24 01:57:59;;;;;;;14.05;8.45;;;8.40;99.90;;;;;;5072876;28;20049;-50
2022/04/24 02:00:25;;;;;;;12.48;8.77;;;8.40;99.90;;;;;;5071874;28;20110;-51
2022/04/24 02:02:51;;;;;;;12.80;8.73;;;8.40;99.90;;;;;;5072723;28;20036;-47
2022/04/24 02:05:17;;;;;;;12.50;8.40;;;8.50;99.90;;;;;;5072498;28;20115;-50
2022/04/24 02:07:43;;;;;;;12.80;8.63;;;8.40;99.90;;;;;;5072488;28;20044;-50
2022/04/24 02:10:09;;;;;;;11.45;8.50;;;8.40;99.90;;;;;;5072435;28;20382;-48
2022/04/24 02:12:39;;;;;;;11.88;8.43;;;8.40;99.90;;;;;;5072563;28;20102;-49
2022/04/24 02:15:06;;;;;;;12.88;8.68;;;8.30;99.90;;;;;;5072384;28;20524;-49
2022/04/24 02:17:32;;;;;;;12.10;8.85;;;8.30;99.90;;;;;;5072206;28;20037;-48
2022/04/24 02:19:57;;;;;;;12.90;8.88;;;8.30;99.90;;;;;;5072276;28;20044;-51
2022/04/24 02:22:23;;;;;;;13.18;9.23;;;8.30;99.90;;;;;;5067325;28;20029;-48
2022/04/24 02:24:49;;;;;;;12.30;8.38;;;8.20;99.90;;;;;;5052307;28;20037;-47
2022/04/24 02:27:14;;;;;;;13.45;8.57;;;8.20;99.90;;;;;;5052344;28;20497;-49
2022/04/24 02:29:40;;;;;;;13.13;8.25;;;8.10;99.90;;;;;;5052215;28;20512;-47
2022/04/24 02:32:06;;;;;;;12.18;8.77;;;8.10;99.90;;;;;;5052164;28;20084;-48
2022/04/24 02:34:32;;;;;;;13.82;8.27;;;8.10;99.90;;;;;;5052035;28;20169;-49
2022/04/24 02:36:57;;;;;;;12.95;8.52;;;8.00;99.90;;;;;;5052143;28;20120;-48
2022/04/24 02:39:23;;;;;;;11.52;8.18;;;8.00;99.90;;;;;;5067385;28;20044;-48
2022/04/24 02:41:48;;;;;;;11.85;8.98;;;8.00;99.90;;;;;;5051978;28;20047;-47
2022/04/24 02:44:14;;;;;;;12.32;8.90;;;7.90;99.90;;;;;;5062524;28;20060;-47
2022/04/24 02:46:40;;;;;;;12.80;8.98;;;8.00;99.90;;;;;;5071952;28;20041;-48
2022/04/24 02:49:05;;;;;;;14.70;9.43;;;7.80;99.90;;;;;;5071809;28;20151;-48
2022/04/24 02:51:31;;;;;;;14.05;8.65;;;7.80;99.90;;;;;;5072072;28;20071;-49
2022/04/24 02:53:57;;;;;;;14.27;9.10;;;7.80;99.90;;;;;;5071984;28;20037;-47
2022/04/24 02:56:22;;;;;;;13.25;8.98;;;7.80;99.90;;;;;;5071754;28;20036;-48
2022/04/24 02:58:48;;;;;;;14.93;9.30;;;7.80;99.90;;;;;;5071638;28;20044;-51
2022/04/24 03:01:14;;;;;;;15.00;9.07;;;7.80;99.90;;;;;;5071633;28;20040;-50
2022/04/24 03:03:42;;;;;;;12.38;8.45;;;7.80;99.90;;;;;;5071532;28;20043;-49
2022/04/24 03:06:07;;;;;;;12.52;8.07;;;7.70;99.90;;;;;;5071727;28;20472;-48
2022/04/24 03:08:34;;;;;;;13.90;8.93;;;7.70;99.90;;;;;;5071605;28;20070;-49
2022/04/24 03:10:59;;;;;;;12.63;8.85;;;7.70;99.90;;;;;;5071505;28;20428;-47
2022/04/24 03:13:25;;;;;;;12.23;8.85;;;7.60;99.90;;;;;;5071699;28;20044;-48
2022/04/24 03:15:51;;;;;;;15.00;8.38;;;7.60;99.90;;;;;;5071541;28;20051;-47
2022/04/24 03:18:16;;;;;;;13.30;8.52;;;7.70;99.90;;;;;;5071383;28;20109;-48
2022/04/24 03:20:42;;;;;;;12.23;8.25;;;7.60;99.90;;;;;;5071583;28;20097;-47
2022/04/24 03:23:08;;;;;;;11.95;8.13;;;7.60;99.90;;;;;;5061798;28;20037;-48
2022/04/24 03:25:33;;;;;;;13.07;8.52;;;7.60;99.90;;;;;;5051517;28;20033;-49
2022/04/24 03:27:59;;;;;;;14.25;7.90;;;7.60;99.90;;;;;;5066830;28;20049;-50
2022/04/24 03:30:24;;;;;;;14.68;8.25;;;7.60;99.90;;;;;;5051385;28;20059;-48
2022/04/24 03:32:50;;;;;;;13.50;8.10;;;7.60;99.90;;;;;;5051260;28;20044;-49
2022/04/24 03:35:16;;;;;;;12.95;8.60;;;7.60;99.90;;;;;;5051477;28;20037;-50
2022/04/24 03:37:43;;;;;;;12.68;7.50;;;7.50;99.90;;;;;;5051199;28;20084;-48
2022/04/24 03:40:09;;;;;;;12.05;8.63;;;7.50;99.90;;;;;;5051189;28;20045;-51
2022/04/24 03:42:35;;;;;;;13.30;8.30;;;7.50;99.90;;;;;;5051125;28;20079;-50
2022/04/24 03:45:02;;;;;;;12.85;8.20;;;7.50;99.90;;;;;;5068121;28;20091;-51
2022/04/24 03:47:28;;;;;;;11.68;8.10;;;7.60;99.90;;;;;;5071552;28;20051;-48
2022/04/24 03:49:54;;;;;;;13.13;8.75;;;7.60;99.90;;;;;;5053362;28;20072;-49
2022/04/24 03:52:20;;;;;;;13.18;8.52;;;7.50;99.90;;;;;;5071201;28;20090;-51
2022/04/24 03:54:45;;;;;;;13.13;7.90;;;7.60;99.90;;;;;;5071263;28;20040;-49
2022/04/24 03:57:12;;;;;;;13.45;8.55;;;7.50;99.90;;;;;;5071087;28;20045;-51
2022/04/24 03:59:38;;;;;;;11.23;8.15;;;7.60;99.90;;;;;;5071110;28;20033;-48
2022/04/24 04:02:03;;;;;;;12.35;7.72;;;7.60;99.90;;;;;;5071123;28;20048;-49
2022/04/24 04:04:29;;;;;;;12.65;7.50;;;7.50;99.90;;;;;;5070983;28;20400;-52
2022/04/24 04:06:55;;;;;;;11.35;8.00;;;7.50;99.90;;;;;;5069978;28;20051;-50
2022/04/24 04:09:21;;;;;;;12.30;7.97;;;7.50;99.90;;;;;;5071097;28;20477;-51
2022/04/24 04:11:47;;;;;;;13.63;7.50;;;7.50;99.90;;;;;;5070958;28;20044;-51
2022/04/24 04:14:12;;;;;;;11.73;7.95;;;7.50;99.90;;;;;;5069514;28;20404;-50
2022/04/24 04:16:38;;;;;;;15.43;7.72;;;7.50;99.90;;;;;;5070831;28;20036;-50
2022/04/24 04:19:04;;;;;;;11.48;7.80;;;7.50;99.90;;;;;;5071062;28;20405;-49
2022/04/24 04:21:30;;;;;;;13.82;7.70;;;7.50;99.90;;;;;;5071052;28;20040;-48
2022/04/24 04:23:56;;;;;;;11.75;7.68;;;7.50;99.90;;;;;;5056807;28;20041;-49
2022/04/24 04:26:21;;;;;;;11.00;7.10;;;7.50;99.90;;;;;;5054654;28;20397;-49
2022/04/24 04:28:48;;;;;;;12.77;8.05;;;7.40;99.90;;;;;;5054415;28;20048;-49
2022/04/24 04:31:14;;;;;;;11.68;7.07;;;7.50;99.90;;;;;;5054361;28;20433;-51
2022/04/24 04:33:41;;;;;;;15.77;9.13;;;7.50;99.90;;;;;;5054289;28;20524;-52
2022/04/24 04:36:07;;;;;;;14.88;8.50;;;7.50;99.90;;;;;;5053071;28;20126;-48
2022/04/24 04:38:33;;;;;;;12.98;7.90;;;7.50;99.90;;;;;;5054117;28;20477;-50
2022/04/24 04:40:58;;;;;;;13.85;8.27;;;7.50;99.90;;;;;;5054252;28;20136;-48
2022/04/24 04:43:28;;;;;;;12.68;7.72;;;7.50;99.90;;;;;;5057730;28;20037;-48
2022/04/24 04:45:54;;;;;;;14.40;7.95;;;7.50;99.90;;;;;;5074334;28;20048;-50
2022/04/24 04:48:20;;;;;;;11.85;7.50;;;7.60;99.90;;;;;;5074323;28;20051;-48
2022/04/24 04:50:46;;;;;;;16.48;8.80;;;7.60;99.90;;;;;;5072830;28;20108;-49
2022/04/24 04:53:12;;;;;;;12.77;8.07;;;7.60;99.90;;;;;;5074179;28;20044;-48
2022/04/24 04:55:38;;;;;;;13.30;8.32;;;7.60;99.90;;;;;;5073989;28;20515;-48
2022/04/24 04:58:03;;;;;;;13.02;8.05;;;7.60;99.90;;;;;;5073900;28;20460;-48
2022/04/24 05:00:29;;;;;;;13.90;8.60;;;7.60;99.90;;;;;;5074142;28;20036;-48
2022/04/24 05:02:55;;;;;;;15.13;9.27;;;7.60;99.90;;;;;;5073979;28;20040;-51
2022/04/24 05:05:21;;;;;;;13.10;8.60;;;7.60;99.90;;;;;;5073729;28;20491;-50
2022/04/24 05:07:47;;;;;;;13.98;8.05;;;7.70;99.90;;;;;;5073931;28;20047;-48
2022/04/24 05:10:13;;;;;;;14.02;9.13;;;7.60;99.90;;;;;;5072362;28;20056;-49
2022/04/24 05:12:39;;;;;;;14.05;8.82;;;7.70;99.90;;;;;;5072308;28;20083;-48
2022/04/24 05:15:12;;;;;;;14.18;8.88;;;7.70;99.90;;;;;;5073555;28;20076;-50
2022/04/24 05:17:38;;;;;;;17.42;9.48;;;7.70;99.90;;;;;;5072138;28;20056;-49
2022/04/24 05:20:06;;;;;;;14.38;9.25;;;7.70;99.90;;;;;;5073534;28;20048;-48
2022/04/24 05:22:32;;;;;;;16.75;9.02;;;7.70;99.90;;;;;;5050582;28;20113;-49
2022/04/24 05:24:58;;;;;;;14.57;8.52;;;7.80;99.90;;;;;;5053405;28;20041;-51
2022/04/24 05:27:24;;;;;;;15.00;8.95;;;7.80;99.90;;;;;;5053431;28;20088;-48
2022/04/24 05:29:50;;;;;;;15.25;8.63;;;7.90;99.90;;;;;;5053799;28;20072;-49
2022/04/24 05:32:16;;;;;;;16.83;9.00;;;8.00;99.90;;;;;;5053238;28;20493;-49
2022/04/24 05:34:42;;;;;;;16.20;8.95;;;8.10;99.90;;;;;;5053271;28;20429;-49
2022/04/24 05:37:08;;;;;;;14.20;9.43;;;8.10;99.90;;;;;;5053137;28;20116;-48
2022/04/24 05:39:34;;;;;;;13.93;8.82;;;8.20;99.90;;;;;;5053045;28;20534;-49
2022/04/24 05:42:00;;;;;;;14.50;9.65;;;8.20;99.90;;;;;;5053075;28;20048;-48
2022/04/24 05:44:25;;;;;;;14.77;9.07;;;8.30;99.90;;;;;;5064091;28;20056;-48
2022/04/24 05:46:52;;;;;;;17.60;9.32;;;8.30;99.90;;;;;;5073128;28;20116;-48
2022/04/24 05:49:18;;;;;;;16.67;10.25;;;8.40;99.90;;;;;;5073093;28;20399;-49
2022/04/24 05:51:43;;;;;;;15.88;9.27;;;8.50;99.90;;;;;;5055136;28;20120;-52
2022/04/24 05:54:10;;;;;;;15.65;9.55;;;8.50;99.90;;;;;;5071700;28;20299;-49
2022/04/24 05:56:35;;;;;;;13.02;8.43;;;8.60;99.90;;;;;;5072738;28;20041;-53
2022/04/24 05:59:02;;;;;;;16.08;8.85;;;8.70;99.90;;;;;;5071386;28;20048;-50
2022/04/24 06:01:28;;;;;;;13.63;8.50;;;8.70;99.90;;;;;;5071629;28;20374;-51
2022/04/24 06:03:54;;;;;;;13.10;8.48;;;8.80;99.90;;;;;;5072774;28;20040;-50
2022/04/24 06:06:20;;;;;;;13.13;8.88;;;8.80;99.90;;;;;;5072463;28;20036;-52
2022/04/24 06:08:45;;;;;;;14.18;7.85;;;8.90;99.90;;;;;;5072554;28;20040;-50
2022/04/24 06:11:11;;;;;;;13.23;7.60;;;8.90;99.90;;;;;;5072584;28;20051;-51
2022/04/24 06:13:39;;;;;;;14.02;7.85;;;9.00;99.90;;;;;;5072719;28;20044;-51
2022/04/24 06:16:05;;;;;;;11.57;6.90;;;9.10;99.90;;;;;;5072923;28;20040;-48
2022/04/24 06:18:31;;;;;;;13.63;7.25;;;9.10;99.90;;;;;;5072619;28;20067;-53
2022/04/24 06:20:56;;;;;;;11.85;6.43;;;9.20;99.90;;;;;;5072613;28;20033;-50
2022/04/24 06:23:24;;;;;;;9.88;5.90;;;9.30;99.90;;;;;;5059253;28;20119;-50
2022/04/24 06:25:50;;;;;;;11.23;5.90;;;9.30;99.90;;;;;;5067816;28;20557;-49
2022/04/24 06:28:16;;;;;;;11.55;6.10;;;9.30;99.90;;;;;;5051361;28;20120;-50
2022/04/24 06:30:42;;;;;;;10.57;5.60;;;9.50;99.90;;;;;;5050812;28;20416;-52
2022/04/24 06:33:11;;;;;;;10.55;5.13;;;9.40;99.90;;;;;;5066038;28;20052;-52
2022/04/24 06:35:38;;;;;;;11.02;5.40;;;9.50;99.90;;;;;;5051085;28;20057;-49
2022/04/24 06:38:05;;;;;;;9.63;4.75;;;9.50;99.90;;;;;;5050463;28;20393;-50
2022/04/24 06:40:31;;;;;;;11.32;4.85;;;9.70;99.90;;;;;;5049097;28;20079;-52
2022/04/24 06:43:04;;;;;;;10.25;5.00;;;9.70;99.90;;;;;;5050625;28;20041;-54
2022/04/24 06:45:41;;;;;;;8.98;4.07;;;9.80;99.90;;;;;;5051791;28;20087;-49
2022/04/24 06:48:16;;;;;;;9.98;4.22;;;9.80;99.90;;;;;;5070389;28;20052;-50
2022/04/24 06:50:46;;;;;;;7.15;4.18;;;9.80;99.90;;;;;;5070131;28;20046;-49
2022/04/24 06:53:20;;;;;;;6.93;3.55;;;9.90;99.90;;;;;;5070486;28;20121;-50
2022/04/24 06:55:50;;;;;;;7.95;3.65;;;10.00;99.90;;;;;;5070567;28;20164;-49
2022/04/24 06:58:18;;;;;;;8.07;3.85;;;10.10;99.90;;;;;;5070518;28;20040;-52
2022/04/24 07:00:45;;;;;;;9.65;3.80;;;10.10;99.90;;;;;;5070277;28;20158;-48
2022/04/24 07:03:12;;;;;;;9.30;3.30;;;10.20;99.90;;;;;;5070117;28;20438;-51
2022/04/24 07:05:39;;;;;;;7.68;3.33;;;10.30;99.90;;;;;;5070220;28;20063;-50
2022/04/24 07:08:05;;;;;;;6.72;3.00;;;10.30;99.90;;;;;;5070209;28;20438;-49
2022/04/24 07:10:31;;;;;;;7.38;3.35;;;10.40;99.90;;;;;;5070148;28;20041;-50
2022/04/24 07:12:57;;;;;;;8.38;3.85;;;10.50;99.90;;;;;;5070040;28;20047;-49
2022/04/24 07:15:24;;;;;;;6.85;3.20;;;10.60;99.90;;;;;;5070075;28;20519;-49
2022/04/24 07:17:51;;;;;;;9.07;3.35;;;10.70;99.90;;;;;;5070490;28;20053;-49
2022/04/24 07:20:18;;;;;;;9.75;3.30;;;10.80;99.90;;;;;;5069018;28;20032;-50
2022/04/24 07:22:57;;;;;;;9.02;3.08;;;11.00;99.90;;;;;;5062045;28;20087;-49
2022/04/24 07:25:25;;;;;;;6.72;3.10;;;11.00;99.90;;;;;;5050019;28;20037;-50
2022/04/24 07:27:52;;;;;;;6.82;2.90;;;11.00;99.90;;;;;;5050077;28;20071;-49
2022/04/24 07:30:19;;;;;;;9.27;3.42;;;11.10;99.90;;;;;;5049905;28;20045;-50
2022/04/24 07:32:50;;;;;;;6.40;2.67;;;11.20;99.90;;;;;;5049970;28;20493;-50
2022/04/24 07:35:25;;;;;;;8.27;3.08;;;11.30;99.90;;;;;;5050214;28;20099;-49
2022/04/24 07:37:52;;;;;;;7.45;3.33;;;11.20;99.90;;;;;;5049899;28;20382;-49
2022/04/24 07:40:20;;;;;;;6.80;3.33;;;11.20;99.90;;;;;;5049587;28;20055;-49
2022/04/24 07:42:53;;;;;;;7.18;2.97;;;11.40;99.90;;;;;;5048880;28;20033;-49
2022/04/24 07:45:37;;;;;;;7.20;3.20;;;11.40;99.90;;;;;;5069352;28;20056;-51
2022/04/24 07:48:04;;;;;;;8.27;3.25;;;11.50;99.90;;;;;;5070116;28;20055;-50
2022/04/24 07:50:38;;;;;;;7.88;2.90;;;11.70;99.90;;;;;;5070397;28;20055;-50
2022/04/24 07:53:05;;;;;;;7.50;3.22;;;11.70;99.90;;;;;;5070062;28;20116;-50
2022/04/24 07:55:31;;;;;;;7.53;3.30;;;11.70;99.90;;;;;;5070323;28;20036;-47
2022/04/24 07:57:58;;;;;;;10.43;3.15;;;11.90;99.90;;;;;;5071014;28;20048;-49
2022/04/24 08:00:28;;;;;;;9.13;3.47;;;11.90;99.90;;;;;;5072176;28;20033;-47
2022/04/24 08:03:00;;;;;;;7.55;3.28;;;12.00;99.90;;;;;;5073669;28;20413;-49
2022/04/24 08:05:28;;;;;;;7.20;3.50;;;12.00;99.90;;;;;;5073615;28;20053;-49
2022/04/24 08:07:55;;;;;;;9.65;3.78;;;12.00;99.90;;;;;;5073551;28;20381;-47
2022/04/24 08:10:23;;;;;;;7.18;3.30;;;12.10;99.90;;;;;;5073498;28;20036;-51
2022/04/24 08:12:49;;;;;;;10.02;3.55;;;12.20;99.90;;;;;;5073254;28;20504;-52
2022/04/24 08:15:15;;;;;;;8.85;3.00;;;12.30;99.90;;;;;;5073319;28;20055;-51
2022/04/24 08:17:41;;;;;;;8.65;3.40;;;12.30;99.90;;;;;;5073243;28;20123;-49
2022/04/24 08:20:09;;;;;;;8.10;3.63;;;12.30;99.90;;;;;;5072845;28;20160;-48
2022/04/24 08:22:38;;;;;;;9.05;3.60;;;12.50;99.90;;;;;;5068018;28;20029;-52
2022/04/24 08:25:05;;;;;;;8.30;3.40;;;12.60;99.90;;;;;;5053512;28;20045;-50
2022/04/24 08:27:31;;;;;;;9.75;3.65;;;12.60;99.90;;;;;;5053652;28;20044;-49
2022/04/24 08:29:56;;;;;;;8.02;3.53;;;12.70;99.90;;;;;;5069072;28;20519;-49
2022/04/24 08:32:24;;;;;;;8.40;4.40;;;12.60;99.90;;;;;;5053034;28;20105;-51
2022/04/24 08:34:50;;;;;;;9.93;4.00;;;12.70;99.90;;;;;;5052760;28;20501;-52
2022/04/24 08:37:16;;;;;;;9.02;4.57;;;12.60;99.90;;;;;;5053133;28;20056;-48
2022/04/24 08:39:42;;;;;;;8.55;3.53;;;12.80;99.90;;;;;;5053132;28;20490;-49
2022/04/24 08:42:11;;;;;;;8.05;3.70;;;12.90;99.90;;;;;;5053239;28;20047;-48
2022/04/24 08:44:39;;;;;;;8.57;3.90;;;13.00;99.90;;;;;;5066645;28;20451;-49
2022/04/24 08:47:06;;;;;;;7.25;3.20;;;12.90;99.90;;;;;;5073085;28;20045;-52
2022/04/24 08:49:32;;;;;;;7.30;3.38;;;12.90;99.90;;;;;;5071802;28;20041;-48
2022/04/24 08:52:01;;;;;;;6.93;3.33;;;12.90;99.90;;;;;;5071234;28;20425;-49
2022/04/24 08:54:28;;;;;;;7.97;3.85;;;13.00;99.90;;;;;;5072866;28;20043;-50
2022/04/24 08:56:58;;;;;;;9.82;4.05;;;13.10;99.90;;;;;;5072745;28;20033;-50
2022/04/24 08:59:23;;;;;;;8.15;3.33;;;13.00;99.90;;;;;;5072595;28;20047;-48
2022/04/24 09:01:52;;;;;;;7.88;3.92;;;13.10;99.90;;;;;;5072393;28;20040;-49
2022/04/24 09:04:20;;;;;;;10.43;3.78;;;13.20;99.90;;;;;;5072876;28;20040;-48
2022/04/24 09:06:59;;;;;;;6.97;3.20;;;13.20;99.90;;;;;;5072596;28;20051;-49
2022/04/24 09:09:26;;;;;;;8.30;3.55;;;13.30;99.90;;;;;;5072329;28;20052;-50
2022/04/24 09:11:51;;;;;;;8.45;3.65;;;13.30;99.90;;;;;;5072553;28;20462;-51
2022/04/24 09:14:20;;;;;;;8.05;3.35;;;13.20;99.90;;;;;;5072248;28;20362;-50
2022/04/24 09:16:48;;;;;;;9.32;3.80;;;13.20;99.90;;;;;;5072463;28;20436;-49
2022/04/24 09:19:21;;;;;;;7.95;3.47;;;13.20;99.90;;;;;;5072048;28;20047;-50
2022/04/24 09:21:48;;;;;;;10.05;4.00;;;13.20;99.90;;;;;;5072382;28;20477;-52
2022/04/24 09:24:14;;;;;;;6.93;3.50;;;13.40;99.90;;;;;;5053083;28;20041;-52
2022/04/24 09:27:06;;;;;;;8.45;3.20;;;13.40;99.90;;;;;;5052141;28;20040;-48
2022/04/24 09:29:32;;;;;;;7.90;3.20;;;13.50;99.90;;;;;;5050711;28;20064;-51
2022/04/24 09:31:57;;;;;;;10.48;3.42;;;13.40;99.90;;;;;;5052040;28;20535;-51
2022/04/24 09:34:30;;;;;;;6.65;3.30;;;13.50;99.90;;;;;;5051958;28;20041;-50
2022/04/24 09:37:03;;;;;;;9.68;3.03;;;13.60;99.90;;;;;;5051699;28;20075;-50
2022/04/24 09:39:31;;;;;;;8.25;3.20;;;13.60;99.90;;;;;;5051710;28;20436;-49
2022/04/24 09:42:04;;;;;;;9.63;3.80;;;13.60;99.90;;;;;;5051952;28;20037;-49
2022/04/24 09:44:38;;;;;;;11.80;3.25;;;13.80;99.90;;;;;;5064327;28;20057;-50
2022/04/24 09:47:05;;;;;;;8.93;2.80;;;13.90;99.90;;;;;;5071466;28;20102;-49
2022/04/24 09:49:38;;;;;;;6.90;3.08;;;13.90;99.90;;;;;;5071353;28;20044;-50
2022/04/24 09:52:17;;;;;;;9.82;3.58;;;14.00;99.90;;;;;;5070620;28;20051;-50
2022/04/24 09:54:51;;;;;;;7.88;3.00;;;13.90;99.90;;;;;;5071750;28;20068;-49
2022/04/24 09:57:18;;;;;;;8.00;3.20;;;14.00;99.90;;;;;;5071396;28;20047;-49
2022/04/24 09:59:45;;;;;;;8.82;3.65;;;14.00;99.90;;;;;;5071352;28;20036;-49
2022/04/24 10:02:14;;;;;;;10.15;3.60;;;13.70;99.90;;;;;;5071134;28;20072;-49
2022/04/24 10:04:41;;;;;;;9.02;3.38;;;13.90;99.90;;;;;;5071329;28;20051;-48
2022/04/24 10:07:09;;;;;;;8.32;3.70;;;13.80;99.90;;;;;;5071329;28;20047;-49
2022/04/24 10:09:42;;;;;;;10.10;3.70;;;13.80;99.90;;;;;;5071194;28;20040;-49
2022/04/24 10:12:26;;;;;;;9.68;3.47;;;13.80;99.90;;;;;;5071164;28;20107;-50
2022/04/24 10:15:03;;;;;;;7.40;3.20;;;13.90;99.90;;;;;;5071540;28;20120;-49
2022/04/24 10:17:44;;;;;;;9.05;3.42;;;14.00;99.90;;;;;;5070978;28;20128;-50
2022/04/24 10:20:25;;;;;;;8.52;3.20;;;14.00;99.90;;;;;;5069491;28;20078;-51
2022/04/24 10:22:54;;;;;;;8.73;3.53;;;14.00;99.90;;;;;;5060101;28;20405;-48
2022/04/24 10:25:40;;;;;;;9.38;3.72;;;14.10;99.90;;;;;;5040137;28;20046;-48
2022/04/24 10:28:11;;;;;;;9.77;3.63;;;14.30;99.90;;;;;;5041663;28;20037;-49
2022/04/24 10:30:37;;;;;;;9.48;3.85;;;14.10;99.90;;;;;;5041646;28;20037;-48
2022/04/24 10:33:22;;;;;;;11.90;4.40;;;14.10;99.90;;;;;;5040367;28;20744;-51
2022/04/24 10:35:49;;;;;;;9.30;4.10;;;14.00;99.90;;;;;;5041245;28;20157;-49
2022/04/24 10:38:16;;;;;;;9.63;3.92;;;14.00;99.90;;;;;;5039057;28;20037;-49
2022/04/24 10:40:41;;;;;;;10.18;4.32;;;14.20;99.90;;;;;;5040734;28;20442;-50
2022/04/24 10:43:07;;;;;;;11.60;3.88;;;14.20;99.90;;;;;;5041876;28;20117;-49
2022/04/24 10:45:45;;;;;;;13.23;5.57;;;14.20;99.90;;;;;;5042104;28;20064;-48
2022/04/24 10:48:14;;;;;;;8.05;3.47;;;14.40;99.90;;;;;;5039800;28;20429;-50
2022/04/24 10:50:47;;;;;;;9.25;4.68;;;14.40;99.90;;;;;;5040857;28;20037;-50
2022/04/24 10:53:13;;;;;;;9.00;3.88;;;14.30;99.90;;;;;;5041266;28;20049;-50
2022/04/24 10:55:40;;;;;;;11.98;4.22;;;14.20;99.90;;;;;;5040888;28;20098;-47
2022/04/24 10:58:07;;;;;;;11.15;4.40;;;14.30;99.90;;;;;;5040235;28;20500;-48
2022/04/24 11:00:34;;;;;;;9.95;4.22;;;14.30;99.90;;;;;;5038910;28;20109;-50
2022/04/24 11:03:11;;;;;;;11.68;4.20;;;14.20;99.90;;;;;;5041173;28;20077;-49
2022/04/24 11:05:40;;;;;;;10.65;4.32;;;14.30;99.90;;;;;;5041749;28;20029;-48
2022/04/24 11:08:07;;;;;;;10.77;4.40;;;14.30;99.90;;;;;;5039333;28;20144;-49
2022/04/24 11:10:44;;;;;;;15.00;5.18;;;14.20;99.90;;;;;;5038059;28;20470;-52
2022/04/24 11:13:16;;;;;;;9.13;4.43;;;14.20;99.90;;;;;;5044336;28;20182;-48
2022/04/24 11:15:53;;;;;;;8.80;4.80;;;14.30;99.90;;;;;;5036330;28;20045;-50
2022/04/24 11:18:27;;;;;;;9.00;4.50;;;14.30;99.90;;;;;;5038460;28;20041;-49
2022/04/24 11:21:04;;;;;;;9.68;4.55;;;14.30;99.90;;;;;;5039160;28;20041;-48
2022/04/24 11:23:35;;;;;;;10.80;4.75;;;14.40;99.90;;;;;;5038796;28;20042;-47
2022/04/24 11:26:05;;;;;;;11.40;5.55;;;14.40;99.90;;;;;;5041139;28;20102;-48
2022/04/24 11:28:49;;;;;;;9.27;4.80;;;14.10;99.90;;;;;;5041298;28;20116;-48
2022/04/24 11:31:18;;;;;;;11.75;5.55;;;14.10;99.90;;;;;;5040854;28;20063;-49
2022/04/24 11:33:58;;;;;;;9.43;4.75;;;14.10;99.90;;;;;;5042543;28;20037;-48
2022/04/24 11:36:31;;;;;;;11.80;5.38;;;14.20;99.90;;;;;;5044863;28;20029;-49
2022/04/24 11:38:57;;;;;;;12.52;4.97;;;14.10;99.90;;;;;;5043716;28;20045;-49
2022/04/24 11:41:28;;;;;;;10.45;4.45;;;14.20;99.90;;;;;;5042988;28;20056;-48
2022/04/24 11:44:00;;;;;;;10.32;5.70;;;14.10;99.90;;;;;;5046625;28;20053;-48
2022/04/24 11:51:55;;;;;;;10.35;4.93;;;14.00;99.90;;;;;;5043453;28;20128;-50
2022/04/24 11:54:22;;;;;;;10.10;5.18;;;14.10;99.90;;;;;;5052159;28;20128;-49
2022/04/24 11:56:51;;;;;;;10.95;5.00;;;14.00;99.90;;;;;;5054068;28;20045;-49
2022/04/24 11:59:19;;;;;;;11.45;5.18;;;13.90;99.90;;;;;;5053441;28;20135;-50
2022/04/24 12:01:57;;;;;;;9.20;4.60;;;14.00;99.90;;;;;;5053546;28;20052;-48
2022/04/24 12:04:26;;;;;;;12.35;5.15;;;14.10;99.90;;;;;;5053327;28;20077;-52
2022/04/24 12:07:00;;;;;;;10.45;4.88;;;14.00;99.90;;;;;;5053475;28;20039;-49
2022/04/24 12:09:26;;;;;;;10.75;5.40;;;14.10;99.90;;;;;;5053481;28;20125;-51
2022/04/24 12:12:06;;;;;;;10.70;5.28;;;14.30;99.90;;;;;;5053632;28;20045;-49
2022/04/24 12:14:32;;;;;;;12.23;5.50;;;14.30;99.90;;;;;;5053526;28;20175;-49
2022/04/24 12:17:02;;;;;;;9.85;5.40;;;14.30;99.90;;;;;;5053300;28;20068;-48
2022/04/24 12:19:28;;;;;;;10.27;4.93;;;14.20;99.90;;;;;;5053843;28;20101;-48
2022/04/24 12:21:54;;;;;;;11.35;5.03;;;14.40;99.90;;;;;;5053117;28;20477;-49
2022/04/24 12:24:21;;;;;;;9.63;4.97;;;14.20;99.90;;;;;;5048758;28;20100;-50
2022/04/24 12:26:48;;;;;;;9.50;5.15;;;14.40;99.90;;;;;;5033158;28;20037;-50
2022/04/24 12:29:17;;;;;;;10.70;4.95;;;14.30;99.90;;;;;;5033469;28;20389;-48
2022/04/24 12:31:44;;;;;;;11.02;5.18;;;14.20;99.90;;;;;;5032307;28;20486;-48
2022/04/24 12:34:10;;;;;;;8.23;4.90;;;14.20;99.90;;;;;;5033224;28;20045;-49
2022/04/24 12:36:47;;;;;;;12.63;5.05;;;14.30;99.90;;;;;;5033113;28;20052;-48
2022/04/24 12:39:13;;;;;;;9.70;4.60;;;14.30;99.90;;;;;;5033067;28;20060;-49
2022/04/24 12:41:39;;;;;;;7.80;4.57;;;14.40;99.90;;;;;;5033146;28;20037;-50
2022/04/24 12:44:07;;;;;;;12.00;5.07;;;14.10;99.90;;;;;;5043185;28;20104;-50
2022/04/24 12:46:34;;;;;;;10.85;5.15;;;14.10;99.90;;;;;;5051595;28;20639;-53
2022/04/24 12:49:02;;;;;;;9.75;4.85;;;14.10;99.90;;;;;;5052800;28;20067;-50
2022/04/24 12:51:28;;;;;;;8.85;4.00;;;14.30;99.90;;;;;;5052544;28;20485;-50
2022/04/24 12:53:56;;;;;;;8.75;4.82;;;14.30;99.90;;;;;;5052824;28;20052;-49